Time;durP1;ratioP1;P1;durP2;ratioP2;P2;SDS_P1;SDS_P2;PMS_P1;PMS_P2;Temp;Humidity;BMP_temperature;BMP_pressure;BME280_temperature;BME280_humidity;BME280_pressure;Samples;Min_cycle;Max_cycle;Signal;HPM_P1;HPM_P2
2021/05/25 00:02:17;;;;;;;0.60;0.57;;;;;;;17.43;63.58;100410.13;5052583;28;20442;-67
2021/05/25 00:04:43;;;;;;;0.70;0.60;;;;;;;17.32;64.26;100412.59;5052503;28;20496;-67
2021/05/25 00:07:09;;;;;;;0.50;0.40;;;;;;;17.22;64.06;100419.38;5051673;28;20446;-67
2021/05/25 00:09:35;;;;;;;0.60;0.50;;;;;;;17.01;63.82;100429.72;5052403;28;20822;-67
2021/05/25 00:12:02;;;;;;;1.10;0.60;;;;;;;16.90;64.21;100441.13;5052330;28;20489;-67
2021/05/25 00:14:29;;;;;;;5.40;0.60;;;;;;;16.73;64.73;100422.28;5055919;28;20445;-67
2021/05/25 00:16:55;;;;;;;0.70;0.67;;;;;;;16.59;65.22;100430.81;5055074;28;20982;-66
2021/05/25 00:19:21;;;;;;;0.70;0.40;;;;;;;16.53;66.22;100439.63;5055838;28;20458;-67
2021/05/25 00:21:48;;;;;;;0.80;0.57;;;;;;;16.44;67.44;100433.50;5055414;28;20466;-67
2021/05/25 00:24:14;;;;;;;0.60;0.40;;;;;;;16.30;68.18;100439.31;5055773;28;20511;-67
2021/05/25 00:26:40;;;;;;;0.80;0.53;;;;;;;16.16;69.27;100456.06;5055025;28;20451;-67
2021/05/25 00:29:07;;;;;;;0.80;0.60;;;;;;;15.97;71.28;100447.63;5055642;28;20468;-66
2021/05/25 00:31:33;;;;;;;0.50;0.40;;;;;;;15.75;73.31;100462.50;5055643;28;20482;-67
2021/05/25 00:33:59;;;;;;;1.13;0.60;;;;;;;15.51;76.33;100457.75;5055553;28;20804;-68
2021/05/25 00:36:26;;;;;;;0.67;0.43;;;;;;;15.25;78.30;100466.19;5055281;28;20453;-67
2021/05/25 00:38:52;;;;;;;0.47;0.33;;;;;;;15.02;80.77;100465.75;5055138;28;20503;-67
2021/05/25 00:41:18;;;;;;;0.77;0.50;;;;;;;14.75;82.88;100459.72;5055391;28;20462;-67
2021/05/25 00:43:44;;;;;;;0.50;0.40;;;;;;;14.61;84.69;100464.63;5055361;28;20446;-67
2021/05/25 00:46:11;;;;;;;0.90;0.53;;;;;;;14.49;86.72;100464.53;5055037;28;20515;-67
2021/05/25 00:48:37;;;;;;;0.60;0.50;;;;;;;14.33;87.34;100465.06;5054533;28;20571;-67
2021/05/25 00:51:04;;;;;;;1.13;0.70;;;;;;;14.20;88.02;100470.75;5054976;28;21002;-67
2021/05/25 00:53:30;;;;;;;0.60;0.50;;;;;;;14.12;89.18;100466.94;5055283;28;20446;-67
2021/05/25 00:55:56;;;;;;;1.07;0.60;;;;;;;13.98;89.97;100475.31;5055000;28;20449;-67
2021/05/25 00:58:22;;;;;;;0.50;0.40;;;;;;;13.88;90.76;100470.25;5054202;28;20958;-66
2021/05/25 01:00:49;;;;;;;0.50;0.40;;;;;;;13.82;91.78;100471.56;5054700;28;20839;-66
2021/05/25 01:03:18;;;;;;;2.83;0.90;;;;;;;13.69;92.58;100470.63;5054831;28;20958;-67
2021/05/25 01:05:45;;;;;;;0.60;0.53;;;;;;;13.69;92.82;100462.47;5054840;28;20457;-67
2021/05/25 01:08:12;;;;;;;0.90;0.60;;;;;;;13.66;92.75;100467.75;5053716;28;20434;-66
2021/05/25 01:10:40;;;;;;;0.70;0.60;;;;;;;13.62;94.06;100467.59;5054751;28;20470;-66
2021/05/25 01:13:09;;;;;;;0.60;0.43;;;;;;;13.58;94.41;100458.47;5054888;28;20442;-66
2021/05/25 01:15:36;;;;;;;0.70;0.57;;;;;;;13.55;94.86;100464.59;5054675;28;20458;-66
2021/05/25 01:18:04;;;;;;;0.90;0.77;;;;;;;13.56;96.21;100471.63;5053598;28;20434;-66
2021/05/25 01:20:32;;;;;;;0.60;0.40;;;;;;;13.60;97.31;100473.38;5054322;28;20485;-66
2021/05/25 01:23:00;;;;;;;0.67;0.47;;;;;;;13.60;98.68;100467.13;5053932;28;20454;-67
2021/05/25 01:25:26;;;;;;;0.80;0.70;;;;;;;13.63;100.00;100469.19;5054475;28;20807;-66
2021/05/25 01:27:55;;;;;;;0.60;0.60;;;;;;;13.68;100.00;100460.88;5053721;28;20450;-67
2021/05/25 01:30:22;;;;;;;0.67;0.67;;;;;;;13.71;100.00;100460.19;5054386;28;20463;-66
2021/05/25 01:32:48;;;;;;;1.27;0.70;;;;;;;13.70;100.00;100452.38;5053960;28;20837;-67
2021/05/25 01:35:14;;;;;;;0.73;0.50;;;;;;;13.73;100.00;100463.41;5054508;28;20446;-66
2021/05/25 01:37:40;;;;;;;0.70;0.60;;;;;;;13.75;100.00;100450.25;5053535;28;20431;-66
2021/05/25 01:40:08;;;;;;;0.70;0.53;;;;;;;13.78;100.00;100449.63;5054251;28;20461;-68
2021/05/25 01:42:36;;;;;;;0.50;0.40;;;;;;;13.74;100.00;100465.00;5054301;28;20442;-66
2021/05/25 01:45:04;;;;;;;1.10;0.63;;;;;;;13.73;100.00;100471.59;5054259;28;20446;-67
2021/05/25 01:47:30;;;;;;;1.00;0.80;;;;;;;13.72;100.00;100467.25;5053054;28;20944;-67
2021/05/25 01:50:11;;;;;;;0.80;0.80;;;;;;;13.71;100.00;100473.00;5053864;28;20474;-67
2021/05/25 01:52:37;;;;;;;0.80;0.70;;;;;;;13.68;100.00;100460.88;5054265;28;20469;-66
2021/05/25 01:55:04;;;;;;;0.60;0.40;;;;;;;13.59;100.00;100451.91;5054107;28;20445;-67
2021/05/25 01:57:31;;;;;;;0.70;0.60;;;;;;;13.52;100.00;100451.63;5053217;28;20453;-67
2021/05/25 01:59:57;;;;;;;0.73;0.63;;;;;;;13.49;100.00;100449.53;5053733;28;20524;-67
2021/05/25 02:02:23;;;;;;;0.67;0.53;;;;;;;13.50;100.00;100443.78;5053794;28;20442;-66
2021/05/25 02:04:49;;;;;;;0.67;0.47;;;;;;;13.47;100.00;100440.91;5053951;28;20442;-67
2021/05/25 02:07:18;;;;;;;1.07;0.80;;;;;;;13.55;100.00;100429.22;5053122;28;20449;-68
2021/05/25 02:09:44;;;;;;;0.97;0.87;;;;;;;13.58;100.00;100425.81;5053709;28;20446;-66
2021/05/25 02:12:15;;;;;;;1.50;0.87;;;;;;;13.61;100.00;100415.09;5053243;28;20525;-66
2021/05/25 02:14:43;;;;;;;0.70;0.60;;;;;;;13.63;100.00;100409.31;5053790;28;20504;-67
2021/05/25 02:17:09;;;;;;;0.80;0.63;;;;;;;13.67;100.00;100410.25;5052810;28;20446;-68
2021/05/25 02:19:35;;;;;;;1.43;0.67;;;;;;;13.71;100.00;100413.94;5053349;28;20456;-68
2021/05/25 02:22:00;;;;;;;0.67;0.67;;;;;;;13.74;100.00;100407.84;5053660;28;20451;-67
2021/05/25 02:24:26;;;;;;;1.60;0.90;;;;;;;13.77;100.00;100409.13;5053566;28;20442;-67
2021/05/25 02:26:53;;;;;;;0.97;0.90;;;;;;;13.80;100.00;100409.25;5052633;28;20442;-67
2021/05/25 02:29:19;;;;;;;1.73;0.57;;;;;;;13.83;100.00;100407.81;5053519;28;20509;-66
2021/05/25 02:31:45;;;;;;;0.93;0.60;;;;;;;13.82;100.00;100404.28;5053320;28;20497;-67
2021/05/25 02:34:11;;;;;;;1.60;0.80;;;;;;;13.85;100.00;100414.50;5053497;28;20441;-66
2021/05/25 02:36:37;;;;;;;1.37;0.87;;;;;;;13.90;100.00;100419.00;5051846;28;21067;-67
2021/05/25 02:39:04;;;;;;;0.80;0.70;;;;;;;13.96;100.00;100422.31;5053101;28;20470;-67
2021/05/25 02:41:30;;;;;;;1.23;0.80;;;;;;;13.95;100.00;100426.19;5053135;28;20458;-66
2021/05/25 02:43:57;;;;;;;0.60;0.60;;;;;;;13.87;100.00;100434.06;5053182;28;20449;-66
2021/05/25 02:46:23;;;;;;;0.83;0.67;;;;;;;13.82;100.00;100430.72;5052703;28;20458;-67
2021/05/25 02:48:50;;;;;;;1.20;0.87;;;;;;;13.84;100.00;100445.59;5052759;28;20446;-67
2021/05/25 02:51:16;;;;;;;1.83;0.70;;;;;;;13.85;100.00;100447.19;5052692;28;20991;-66
2021/05/25 02:53:42;;;;;;;0.60;0.47;;;;;;;13.85;100.00;100446.38;5053233;28;20449;-66
2021/05/25 02:56:08;;;;;;;0.90;0.47;;;;;;;13.83;100.00;100441.28;5052672;28;21039;-67
2021/05/25 02:58:34;;;;;;;0.67;0.60;;;;;;;13.82;100.00;100436.97;5052324;28;20536;-66
2021/05/25 03:01:00;;;;;;;0.97;0.80;;;;;;;13.78;100.00;100427.84;5053063;28;20836;-66
2021/05/25 03:03:26;;;;;;;1.00;0.90;;;;;;;13.76;100.00;100435.53;5053117;28;20959;-66
2021/05/25 03:05:53;;;;;;;1.27;0.77;;;;;;;13.78;100.00;100440.66;5052962;28;20440;-68
2021/05/25 03:08:19;;;;;;;0.80;0.70;;;;;;;13.77;100.00;100442.59;5052205;28;20496;-66
2021/05/25 03:10:47;;;;;;;0.70;0.60;;;;;;;13.75;100.00;100433.94;5053057;28;20466;-66
2021/05/25 03:13:14;;;;;;;0.80;0.70;;;;;;;13.76;100.00;100432.00;5053212;28;20784;-65
2021/05/25 03:15:42;;;;;;;1.03;0.93;;;;;;;13.76;100.00;100434.72;5052690;28;20977;-65
2021/05/25 03:18:10;;;;;;;1.47;0.83;;;;;;;13.74;100.00;100426.91;5051830;28;20943;-65
2021/05/25 03:20:38;;;;;;;1.53;0.50;;;;;;;13.76;100.00;100430.06;5052461;28;20878;-65
2021/05/25 03:23:07;;;;;;;0.90;0.63;;;;;;;13.76;100.00;100421.91;5052544;28;20812;-65
2021/05/25 03:25:33;;;;;;;1.10;0.87;;;;;;;13.80;100.00;100436.47;5052884;28;20438;-64
2021/05/25 03:27:59;;;;;;;0.60;0.60;;;;;;;13.81;100.00;100434.53;5051645;28;20940;-65
2021/05/25 03:30:27;;;;;;;1.00;0.57;;;;;;;13.86;100.00;100440.63;5051816;28;20549;-66
2021/05/25 03:32:53;;;;;;;0.70;0.70;;;;;;;13.83;100.00;100441.28;5052352;28;20973;-65
2021/05/25 03:35:22;;;;;;;0.53;0.47;;;;;;;13.82;100.00;100439.69;5052438;28;20955;-65
2021/05/25 03:37:48;;;;;;;0.50;0.47;;;;;;;13.82;100.00;100433.44;5051773;28;20442;-66
2021/05/25 03:40:17;;;;;;;1.90;0.90;;;;;;;13.85;100.00;100433.56;5052531;28;20461;-64
2021/05/25 03:42:47;;;;;;;0.80;0.70;;;;;;;13.85;100.00;100439.00;5052602;28;20443;-66
2021/05/25 03:45:14;;;;;;;1.10;0.73;;;;;;;13.84;100.00;100448.31;5052687;28;20454;-66
2021/05/25 03:47:40;;;;;;;0.60;0.60;;;;;;;13.80;100.00;100447.34;5052607;28;20449;-66
2021/05/25 03:50:08;;;;;;;1.00;0.60;;;;;;;13.75;100.00;100449.47;5056443;28;20450;-66
2021/05/25 03:52:35;;;;;;;0.90;0.80;;;;;;;13.72;100.00;100447.38;5056178;28;20482;-66
2021/05/25 03:55:03;;;;;;;1.53;0.70;;;;;;;13.72;100.00;100453.63;5056235;28;20947;-66
2021/05/25 04:00:15;;;;;;;0.80;0.70;;;;;;;13.69;100.00;100445.34;5055131;28;20931;-66
2021/05/25 04:02:41;;;;;;;0.70;0.60;;;;;;;13.71;100.00;100443.88;5055923;28;20488;-66
2021/05/25 04:05:08;;;;;;;0.70;0.70;;;;;;;13.71;100.00;100443.88;5055994;28;20536;-66
2021/05/25 04:07:34;;;;;;;1.77;0.80;;;;;;;13.75;100.00;100447.53;5055280;28;20461;-66
2021/05/25 04:10:00;;;;;;;0.93;0.80;;;;;;;13.77;100.00;100450.75;5055972;28;20492;-67
2021/05/25 04:12:26;;;;;;;1.87;0.90;;;;;;;13.75;100.00;100453.00;5055967;28;20493;-66
2021/05/25 04:14:53;;;;;;;0.83;0.57;;;;;;;13.77;99.31;100458.13;5055138;28;20515;-67
2021/05/25 04:17:19;;;;;;;1.70;0.87;;;;;;;13.76;99.23;100457.31;5055057;28;20944;-66
2021/05/25 04:19:45;;;;;;;0.50;0.47;;;;;;;13.79;97.55;100450.41;5055456;28;20461;-67
2021/05/25 04:22:11;;;;;;;0.63;0.63;;;;;;;13.83;96.96;100454.88;5055970;28;20422;-67
2021/05/25 04:24:37;;;;;;;0.60;0.60;;;;;;;13.86;96.08;100450.72;5055220;28;20449;-67
2021/05/25 04:27:03;;;;;;;0.67;0.60;;;;;;;13.84;95.90;100451.03;5055476;28;20855;-67
2021/05/25 04:29:29;;;;;;;1.27;0.63;;;;;;;13.84;95.83;100450.22;5055528;28;20446;-68
2021/05/25 04:31:56;;;;;;;1.10;0.70;;;;;;;13.84;96.42;100447.50;5055588;28;20478;-67
2021/05/25 04:34:22;;;;;;;0.50;0.50;;;;;;;13.87;95.93;100447.66;5055204;28;20446;-68
2021/05/25 04:36:48;;;;;;;0.70;0.60;;;;;;;13.85;96.40;100454.53;5055100;28;20449;-67
2021/05/25 04:39:13;;;;;;;0.90;0.80;;;;;;;13.88;96.86;100451.97;5053803;28;20445;-66
2021/05/25 04:41:39;;;;;;;1.07;0.87;;;;;;;13.98;96.79;100469.88;5055359;28;20459;-67
2021/05/25 04:44:06;;;;;;;1.67;1.13;;;;;;;14.04;96.81;100471.31;5055325;28;20442;-67
2021/05/25 04:46:32;;;;;;;0.60;0.60;;;;;;;14.06;96.53;100465.53;5054464;28;20450;-67
2021/05/25 04:48:58;;;;;;;2.10;0.90;;;;;;;14.08;96.62;100464.09;5055404;28;20450;-66
2021/05/25 04:51:24;;;;;;;0.70;0.70;;;;;;;14.09;95.45;100473.06;5055127;28;20490;-66
2021/05/25 04:53:50;;;;;;;1.47;1.17;;;;;;;14.11;95.77;100471.59;5055323;28;20822;-65
2021/05/25 04:56:16;;;;;;;0.80;0.70;;;;;;;14.16;96.25;100476.03;5054410;28;20480;-64
2021/05/25 04:58:42;;;;;;;1.07;0.90;;;;;;;14.20;96.85;100474.25;5054459;28;21029;-64
2021/05/25 05:01:08;;;;;;;0.77;0.63;;;;;;;14.24;96.70;100460.78;5054898;28;20511;-64
2021/05/25 05:03:34;;;;;;;1.67;1.00;;;;;;;14.31;95.49;100461.88;5055048;28;20947;-65
2021/05/25 05:06:01;;;;;;;0.70;0.70;;;;;;;14.33;95.43;100459.63;5054098;28;20939;-64
2021/05/25 05:08:27;;;;;;;1.80;0.80;;;;;;;14.23;89.51;100465.44;5054936;28;20446;-64
2021/05/25 05:10:53;;;;;;;0.60;0.60;;;;;;;14.18;89.39;100454.75;5054750;28;20979;-65
2021/05/25 05:13:19;;;;;;;0.97;0.70;;;;;;;14.12;89.55;100459.59;5054860;28;20486;-66
2021/05/25 05:15:45;;;;;;;0.50;0.40;;;;;;;14.07;88.73;100470.63;5053748;28;20958;-64
2021/05/25 05:18:11;;;;;;;0.60;0.40;;;;;;;14.02;87.77;100483.66;5054439;28;20438;-65
2021/05/25 05:20:37;;;;;;;0.70;0.70;;;;;;;14.01;87.12;100485.56;5081832;22;20521;-69
2021/05/25 05:23:04;;;;;;;1.17;0.60;;;;;;;13.98;85.81;100490.88;5074638;28;20418;-70
2021/05/25 05:25:30;;;;;;;0.70;0.40;;;;;;;13.96;85.93;100499.38;5073786;28;20441;-70
2021/05/25 05:27:56;;;;;;;0.70;0.50;;;;;;;13.95;87.21;100492.34;5074415;28;20524;-70
2021/05/25 05:30:22;;;;;;;0.60;0.60;;;;;;;13.94;87.36;100498.09;5074471;28;20445;-70
2021/05/25 05:32:48;;;;;;;1.23;0.60;;;;;;;14.02;87.58;100499.97;5074421;28;20832;-70
2021/05/25 05:35:14;;;;;;;1.43;0.80;;;;;;;14.01;85.13;100510.09;5073628;28;20463;-70
2021/05/25 05:37:40;;;;;;;0.70;0.40;;;;;;;13.96;84.13;100504.03;5074363;28;20441;-70
2021/05/25 05:40:08;;;;;;;0.50;0.40;;;;;;;13.90;84.66;100489.78;5074101;28;20449;-70
2021/05/25 05:42:34;;;;;;;0.80;0.50;;;;;;;13.87;84.69;100493.94;5074282;28;20473;-70
2021/05/25 05:45:00;;;;;;;0.80;0.60;;;;;;;13.85;83.92;100503.56;5073016;28;20950;-70
2021/05/25 05:47:26;;;;;;;0.60;0.57;;;;;;;13.86;83.38;100524.25;5074094;28;20472;-70
2021/05/25 05:49:52;;;;;;;1.00;0.50;;;;;;;13.85;83.76;100523.41;5074188;28;20793;-71
2021/05/25 05:52:18;;;;;;;0.50;0.30;;;;;;;13.91;83.34;100523.25;5072336;28;20520;-70
2021/05/25 05:54:47;;;;;;;1.10;0.50;;;;;;;13.93;82.35;100531.91;5072679;28;20473;-70
2021/05/25 05:57:15;;;;;;;0.40;0.30;;;;;;;13.88;82.38;100539.09;5072948;28;20857;-70
2021/05/25 05:59:41;;;;;;;0.70;0.40;;;;;;;13.90;82.73;100541.53;5072670;28;20452;-70
2021/05/25 06:02:07;;;;;;;0.70;0.43;;;;;;;13.91;82.58;100528.72;5073652;28;20537;-70
2021/05/25 06:04:34;;;;;;;0.50;0.40;;;;;;;13.88;82.78;100520.06;5079976;28;20440;-71
2021/05/25 06:06:59;;;;;;;0.50;0.30;;;;;;;13.84;82.95;100519.09;5073516;28;20530;-71
2021/05/25 06:09:26;;;;;;;0.60;0.50;;;;;;;13.86;82.30;100519.59;5073414;28;20808;-70
2021/05/25 06:11:53;;;;;;;0.70;0.60;;;;;;;13.77;80.02;100520.75;5072983;28;20491;-70
2021/05/25 06:14:20;;;;;;;0.50;0.40;;;;;;;13.75;81.23;100510.16;5072564;28;20838;-70
2021/05/25 06:16:46;;;;;;;0.80;0.53;;;;;;;13.80;80.32;100529.03;5073320;28;20496;-70
2021/05/25 06:19:12;;;;;;;0.83;0.50;;;;;;;13.86;79.96;100529.69;5073076;28;20443;-70
2021/05/25 06:21:38;;;;;;;0.60;0.50;;;;;;;13.89;80.63;100548.88;5073179;28;20470;-70
2021/05/25 06:24:04;;;;;;;0.40;0.30;;;;;;;13.91;79.18;100540.41;5073549;28;20441;-70
2021/05/25 06:26:31;;;;;;;0.60;0.40;;;;;;;13.94;79.09;100550.63;5073367;28;20445;-70
2021/05/25 06:28:58;;;;;;;1.80;0.50;;;;;;;14.00;79.06;100559.44;5072418;28;20934;-70
2021/05/25 06:31:25;;;;;;;0.63;0.40;;;;;;;14.08;79.62;100553.19;5073213;28;20472;-70
2021/05/25 06:33:50;;;;;;;0.50;0.33;;;;;;;14.06;77.36;100552.69;5073518;28;20437;-70
2021/05/25 06:36:16;;;;;;;0.50;0.37;;;;;;;14.06;77.53;100541.78;5073407;28;20452;-70
2021/05/25 06:38:42;;;;;;;0.60;0.30;;;;;;;14.10;77.32;100532.63;5072410;28;20459;-70
2021/05/25 06:41:08;;;;;;;0.60;0.40;;;;;;;14.14;75.91;100539.03;5072860;28;20461;-70
2021/05/25 06:43:34;;;;;;;0.50;0.40;;;;;;;14.19;75.48;100540.78;5073158;28;20441;-70
2021/05/25 06:46:01;;;;;;;0.50;0.40;;;;;;;14.27;77.07;100537.22;5073230;28;20483;-70
2021/05/25 06:48:27;;;;;;;0.50;0.30;;;;;;;14.30;73.46;100541.25;5072390;28;20476;-70
2021/05/25 06:50:53;;;;;;;0.40;0.30;;;;;;;14.26;73.80;100557.44;5073166;28;20461;-70
2021/05/25 06:53:19;;;;;;;0.83;0.50;;;;;;;14.24;73.16;100559.66;5073144;28;20481;-70
2021/05/25 06:55:45;;;;;;;0.50;0.37;;;;;;;14.19;73.40;100569.94;5073130;28;20441;-69
2021/05/25 06:58:11;;;;;;;0.60;0.50;;;;;;;14.18;72.80;100555.53;5072122;28;20441;-70
2021/05/25 07:00:37;;;;;;;0.60;0.40;;;;;;;14.20;73.81;100547.81;5073174;28;20465;-69
2021/05/25 07:03:04;;;;;;;0.80;0.43;;;;;;;14.32;75.79;100555.31;5073373;28;20437;-70
2021/05/25 07:05:30;;;;;;;0.50;0.50;;;;;;;14.36;72.81;100553.53;5073475;28;20438;-70
2021/05/25 07:07:56;;;;;;;0.60;0.40;;;;;;;14.39;71.37;100567.31;5072200;28;20817;-70
2021/05/25 07:10:22;;;;;;;0.70;0.50;;;;;;;14.37;71.22;100579.66;5073067;28;20480;-70
2021/05/25 07:12:48;;;;;;;0.97;0.50;;;;;;;14.34;71.66;100581.13;5073104;28;20851;-70
2021/05/25 07:15:15;;;;;;;0.50;0.33;;;;;;;14.30;70.09;100569.28;5073335;28;20855;-67
2021/05/25 07:17:44;;;;;;;0.53;0.40;;;;;;;14.26;69.06;100571.06;5072173;28;20973;-69
2021/05/25 07:20:12;;;;;;;0.60;0.40;;;;;;;14.23;71.34;100568.19;5072994;28;20441;-69
2021/05/25 07:22:39;;;;;;;1.03;0.50;;;;;;;14.23;70.23;100568.97;5074939;28;20445;-68
2021/05/25 07:25:06;;;;;;;0.43;0.30;;;;;;;14.29;70.73;100559.47;5036857;28;20932;-68
2021/05/25 07:27:33;;;;;;;0.47;0.33;;;;;;;14.21;68.34;100559.50;5036275;28;20442;-69
2021/05/25 07:29:59;;;;;;;0.60;0.50;;;;;;;14.32;69.46;100571.66;5036954;28;20483;-69
2021/05/25 07:32:25;;;;;;;0.50;0.30;;;;;;;14.25;67.41;100566.72;5036797;28;20484;-69
2021/05/25 07:34:51;;;;;;;0.67;0.53;;;;;;;14.24;67.02;100581.47;5036840;28;20470;-69
2021/05/25 07:37:17;;;;;;;1.57;0.60;;;;;;;14.28;67.23;100600.69;5036219;28;20492;-69
2021/05/25 07:39:44;;;;;;;0.50;0.40;;;;;;;14.21;67.69;100584.03;5036293;28;20439;-69
2021/05/25 07:42:10;;;;;;;0.40;0.33;;;;;;;14.19;68.72;100589.03;5045028;28;20866;-69
2021/05/25 07:44:36;;;;;;;0.50;0.43;;;;;;;14.26;68.45;100581.16;5047160;28;20457;-69
2021/05/25 07:47:02;;;;;;;0.50;0.30;;;;;;;14.30;67.44;100582.91;5045363;28;20514;-68
2021/05/25 07:49:28;;;;;;;0.50;0.40;;;;;;;14.25;68.70;100588.50;5050618;28;20454;-69
2021/05/25 07:51:54;;;;;;;0.50;0.43;;;;;;;14.18;66.57;100593.69;5046674;28;20825;-71
2021/05/25 07:54:20;;;;;;;2.07;0.43;;;;;;;14.19;67.17;100600.72;5046934;28;20940;-71
2021/05/25 07:56:47;;;;;;;0.67;0.40;;;;;;;14.30;66.92;100601.97;5045085;28;20434;-70
2021/05/25 07:59:13;;;;;;;0.77;0.60;;;;;;;14.35;66.13;100601.81;5052690;28;20418;-70
2021/05/25 08:01:39;;;;;;;0.50;0.33;;;;;;;14.49;67.17;100611.72;5057585;28;20458;-71
2021/05/25 08:04:05;;;;;;;0.70;0.57;;;;;;;14.59;66.83;100622.25;5055990;28;21009;-70
2021/05/25 08:06:31;;;;;;;0.90;0.60;;;;;;;14.61;66.96;100617.28;5056435;28;20450;-69
2021/05/25 08:08:57;;;;;;;0.50;0.43;;;;;;;14.70;66.37;100618.06;5056412;28;20897;-70
2021/05/25 08:11:23;;;;;;;0.40;0.30;;;;;;;14.69;66.97;100630.06;5055331;28;20465;-70
2021/05/25 08:13:49;;;;;;;0.50;0.30;;;;;;;14.57;64.90;100624.53;5055707;28;20817;-70
2021/05/25 08:16:18;;;;;;;0.47;0.33;;;;;;;14.54;65.37;100625.97;5060076;28;20813;-70
2021/05/25 08:18:52;;;;;;;0.60;0.40;;;;;;;14.59;68.89;100608.63;5075094;28;20889;-69
2021/05/25 08:21:18;;;;;;;0.53;0.40;;;;;;;14.69;65.30;100618.38;5075118;28;20481;-70
2021/05/25 08:23:44;;;;;;;0.70;0.40;;;;;;;14.67;66.83;100618.69;5075856;28;20437;-69
2021/05/25 08:26:10;;;;;;;1.13;0.60;;;;;;;14.56;65.70;100623.69;5076418;28;20437;-70
2021/05/25 08:28:36;;;;;;;0.60;0.40;;;;;;;14.63;67.90;100625.94;5074586;28;20942;-69
2021/05/25 08:31:04;;;;;;;0.57;0.43;;;;;;;14.70;66.99;100626.22;5075762;28;20457;-70
2021/05/25 08:33:30;;;;;;;0.50;0.40;;;;;;;14.67;63.17;100620.63;5074875;28;20477;-70
2021/05/25 08:35:56;;;;;;;0.50;0.40;;;;;;;14.54;64.90;100620.50;5075642;28;20460;-71
2021/05/25 08:38:23;;;;;;;0.73;0.50;;;;;;;14.63;66.00;100615.81;5074732;28;20694;-70
2021/05/25 08:40:51;;;;;;;0.70;0.60;;;;;;;14.86;65.65;100621.00;5075506;28;20461;-70
2021/05/25 08:43:17;;;;;;;0.40;0.30;;;;;;;14.87;62.11;100626.16;5075754;28;20441;-69
2021/05/25 08:45:44;;;;;;;0.40;0.30;;;;;;;14.88;62.83;100622.28;5075538;28;20500;-70
2021/05/25 08:48:11;;;;;;;0.50;0.40;;;;;;;14.89;62.44;100618.44;5074545;28;20445;-70
2021/05/25 08:50:38;;;;;;;0.77;0.60;;;;;;;15.04;62.74;100624.44;5075287;28;20461;-70
2021/05/25 08:53:04;;;;;;;0.47;0.30;;;;;;;15.09;61.35;100619.59;5075365;28;20489;-70
2021/05/25 08:55:32;;;;;;;3.07;0.33;;;;;;;15.28;62.55;100632.81;5074096;28;20449;-69
2021/05/25 08:57:59;;;;;;;0.50;0.47;;;;;;;15.38;61.13;100634.34;5075309;28;20445;-69
2021/05/25 09:00:26;;;;;;;0.90;0.60;;;;;;;15.42;61.07;100634.47;5075269;28;20487;-69
2021/05/25 09:02:56;;;;;;;0.50;0.40;;;;;;;15.64;60.27;100625.97;5074959;28;20437;-69
2021/05/25 09:05:27;;;;;;;0.60;0.43;;;;;;;15.74;59.97;100639.22;5074885;28;20895;-69
2021/05/25 09:07:54;;;;;;;0.70;0.40;;;;;;;15.90;60.52;100623.03;5074073;28;20890;-69
2021/05/25 09:10:22;;;;;;;0.60;0.43;;;;;;;15.99;58.49;100622.94;5075078;28;20445;-69
2021/05/25 09:12:50;;;;;;;0.83;0.50;;;;;;;15.98;57.23;100626.78;5074762;28;20481;-70
2021/05/25 09:15:30;;;;;;;0.40;0.30;;;;;;;15.94;59.11;100617.66;5074550;28;20817;-69
2021/05/25 09:18:01;;;;;;;0.50;0.47;;;;;;;15.89;57.54;100605.84;5074129;28;20429;-69
2021/05/25 09:20:37;;;;;;;0.60;0.50;;;;;;;15.95;58.24;100597.44;5074551;28;20441;-69
2021/05/25 09:23:03;;;;;;;0.53;0.43;;;;;;;16.04;61.55;100595.41;5074842;28;20447;-69
2021/05/25 09:25:30;;;;;;;0.87;0.67;;;;;;;16.08;57.29;100597.13;5074811;28;20453;-70
2021/05/25 09:27:59;;;;;;;0.97;0.60;;;;;;;16.00;57.74;100600.75;5074038;28;20452;-69
2021/05/25 09:30:28;;;;;;;0.47;0.37;;;;;;;16.18;58.12;100606.03;5074656;28;20441;-69
2021/05/25 09:32:58;;;;;;;0.50;0.40;;;;;;;16.31;54.39;100602.97;5074205;28;20513;-69
2021/05/25 09:35:29;;;;;;;0.50;0.30;;;;;;;16.48;54.11;100604.72;5074190;28;20832;-70
2021/05/25 09:38:01;;;;;;;0.43;0.33;;;;;;;16.49;55.66;100608.25;5073702;28;20430;-70
2021/05/25 09:40:28;;;;;;;0.70;0.50;;;;;;;16.26;54.04;100616.88;5073763;28;20527;-70
2021/05/25 09:43:09;;;;;;;0.40;0.30;;;;;;;15.97;54.84;100620.53;5074307;28;20472;-71
2021/05/25 09:45:35;;;;;;;0.50;0.40;;;;;;;15.77;56.95;100665.88;5074160;28;20433;-70
2021/05/25 09:48:04;;;;;;;0.50;0.30;;;;;;;15.10;67.06;100656.66;5073221;28;20442;-70
2021/05/25 09:50:31;;;;;;;0.60;0.37;;;;;;;14.03;76.20;100665.00;5074006;28;20547;-70
2021/05/25 09:53:03;;;;;;;0.50;0.40;;;;;;;12.99;81.36;100671.09;5074353;28;20481;-71
2021/05/25 09:55:30;;;;;;;0.50;0.40;;;;;;;12.43;85.14;100652.78;5074052;28;20509;-70
2021/05/25 09:57:58;;;;;;;0.47;0.30;;;;;;;11.77;87.65;100655.19;5079613;28;20999;-70
2021/05/25 10:00:31;;;;;;;0.50;0.40;;;;;;;11.47;90.64;100648.56;5074736;28;20814;-71
2021/05/25 10:03:15;;;;;;;0.50;0.40;;;;;;;11.36;90.68;100637.91;5073941;28;20425;-71
2021/05/25 10:05:44;;;;;;;0.80;0.50;;;;;;;11.51;94.00;100633.25;5073894;28;20425;-70
2021/05/25 10:08:12;;;;;;;0.50;0.40;;;;;;;11.70;93.18;100633.13;5073133;28;20445;-70
2021/05/25 10:10:39;;;;;;;0.47;0.30;;;;;;;11.86;93.13;100626.22;5073156;28;20465;-70
2021/05/25 10:13:06;;;;;;;0.40;0.30;;;;;;;11.96;91.34;100630.63;5073422;28;20481;-71
2021/05/25 10:15:33;;;;;;;0.40;0.30;;;;;;;11.99;91.16;100657.13;5047212;28;20514;-71
2021/05/25 10:20:50;;;;;;;0.57;0.40;;;;;;;11.89;91.95;100681.81;5044089;28;20950;-70
2021/05/25 10:23:16;;;;;;;0.40;0.30;;;;;;;11.80;92.70;100687.13;5033684;28;20489;-70
2021/05/25 10:25:44;;;;;;;1.57;0.40;;;;;;;11.65;94.05;100696.44;5032895;28;20454;-70
2021/05/25 10:28:12;;;;;;;0.50;0.33;;;;;;;11.57;94.41;100694.44;5033752;28;20435;-70
2021/05/25 10:30:43;;;;;;;0.43;0.37;;;;;;;11.47;95.81;100694.66;5033644;28;20475;-72
2021/05/25 10:33:22;;;;;;;0.50;0.50;;;;;;;11.45;96.45;100691.44;5033605;28;20835;-70
2021/05/25 10:35:54;;;;;;;0.50;0.40;;;;;;;11.33;97.69;100684.66;5033496;28;20484;-71
2021/05/25 10:38:22;;;;;;;0.50;0.40;;;;;;;11.39;99.54;100669.06;5033142;28;20948;-71
2021/05/25 10:40:50;;;;;;;0.50;0.40;;;;;;;11.47;99.22;100670.25;5032422;28;20521;-72
2021/05/25 10:43:38;;;;;;;1.07;0.67;;;;;;;11.58;99.60;100653.44;5033504;28;20816;-71
2021/05/25 10:46:21;;;;;;;1.00;0.63;;;;;;;11.95;100.00;100646.09;5032610;28;20461;-71
2021/05/25 10:48:51;;;;;;;0.50;0.40;;;;;;;12.40;98.23;100650.72;5032949;28;20433;-72
2021/05/25 10:51:18;;;;;;;0.40;0.30;;;;;;;12.81;97.11;100648.47;5032662;28;20463;-71
2021/05/25 10:53:44;;;;;;;0.40;0.40;;;;;;;13.35;94.72;100649.13;5033350;28;20493;-71
2021/05/25 10:56:26;;;;;;;0.50;0.50;;;;;;;13.77;93.44;100652.22;5032882;28;20944;-71
2021/05/25 10:59:05;;;;;;;0.60;0.50;;;;;;;14.04;90.52;100650.28;5032385;28;20525;-71
2021/05/25 11:01:32;;;;;;;0.77;0.53;;;;;;;14.17;87.63;100656.66;5033226;28;20464;-70
2021/05/25 11:04:07;;;;;;;0.93;0.67;;;;;;;14.22;83.93;100654.56;5033042;28;20454;-70
2021/05/25 11:06:34;;;;;;;0.83;0.47;;;;;;;14.37;84.26;100651.31;5032591;28;20443;-71
2021/05/25 11:09:19;;;;;;;0.90;0.60;;;;;;;14.68;85.33;100644.81;5031714;28;20443;-72
2021/05/25 11:11:46;;;;;;;0.77;0.60;;;;;;;14.83;85.16;100641.56;5032023;28;20487;-71
2021/05/25 11:14:13;;;;;;;1.63;1.20;;;;;;;14.91;83.03;100650.03;5032424;28;20455;-69
2021/05/25 11:16:40;;;;;;;0.60;0.50;;;;;;;14.91;80.75;100658.19;5031787;28;20450;-68
2021/05/25 11:19:32;;;;;;;0.60;0.40;;;;;;;14.95;80.91;100649.03;5031882;28;20470;-69
2021/05/25 11:22:14;;;;;;;0.70;0.70;;;;;;;15.07;83.31;100651.88;5057216;22;20491;-62
2021/05/25 11:24:42;;;;;;;0.50;0.40;;;;;;;14.89;80.95;100653.88;5032552;28;20424;-62
2021/05/25 11:27:11;;;;;;;0.50;0.40;;;;;;;14.67;83.22;100656.88;5031652;28;20450;-62
2021/05/25 11:29:38;;;;;;;2.30;0.40;;;;;;;14.96;79.88;100634.25;5032958;28;20457;-63
2021/05/25 11:32:10;;;;;;;0.60;0.40;;;;;;;15.67;82.48;100641.72;5032272;28;20988;-63